NEDK1: Verdigris River, Neodesha Ks

Data processed at Thu May 23 2019 23:50


All information presented herein is the property of the government of the United States of America and may be revised or deleted at any time without prior notice.
Dissemination of this information without the expressed written consent of the Public Affairs Office, Tulsa District U.S. Army Corps of Engineers is strictly prohibited.
These data are gathered electronically and, as presented, have not undergone any form of quality control. These data are not guaranteed to be valid or correct.
Go to home page.
Go to station list.
Go to home page.

Upstream stations:

Downstream station:
Previous Day
Next Day
Current Day
    
SHEF ID:       NEDK1     Verdigris River, Neodesha Ks
STATION TYPE:  

               PRECIP     STAGE  RIV-FLOW   VOLTAGE  BAT-LOAD
                   in        ft       cfs      volt      volt
              Ccp-Rev   Ccp-Rev   Ccp-Rev   Ccp-Rev   Ccp-Rev
(US/Central)
05/23 00:00      0.00     37.57     20428     12.73     12.65
05/23 01:00      0.00     37.48     19970     12.73     12.65
05/23 02:00      0.04     37.42     19669     12.73     12.65
05/23 03:00      0.01     37.34     19273     12.65     12.65
05/23 04:00      0.00     37.31     19127     12.65     12.65
05/23 05:00      0.06     37.27     18933     12.65     12.65
05/23 06:00      0.08     37.26     18885     12.65     12.65
05/23 07:00      0.02     37.20     18598     12.65     12.57
05/23 08:00      0.01     37.19     18551     12.65     12.57
05/23 09:00      0.01     37.16     18409     12.65     12.57
05/23 10:00      0.00     37.13     18268     12.65     12.65
05/23 11:00      0.08     37.11     18175     12.65     12.65
05/23 12:00      0.04     37.10     18129     12.65     12.65
05/23 13:00      0.00     37.10     18129     13.37     12.89
05/23 14:00      0.00     37.11     18175     13.44     13.68
05/23 15:00      0.00     37.09     18082     13.84     13.29
05/23 16:00      0.01     37.13     18268     13.29     13.29
05/23 17:00      0.00     37.14     18315     13.29     13.29
05/23 18:00      0.00     37.13     18268     13.05     13.13
05/23 19:00      0.00     37.16     18409     12.89     12.89
05/23 20:00      0.00     37.12     18222     12.81     12.81
05/23 21:00      0.00     37.16     18409     12.73     12.73
05/23 22:00      0.00     37.11     18175     12.73     12.73
05/23 23:00      0.00     37.09     18082     12.73     12.65